createdAt,value
2022-12-27T00:00:44.122Z,3.80
2022-12-27T00:01:44.031Z,3.70
2022-12-27T00:02:44.070Z,3.40
2022-12-27T00:03:43.879Z,3.50
2022-12-27T00:04:43.813Z,3.80
2022-12-27T00:05:43.700Z,4.80
2022-12-27T00:08:22.716Z,3.60
2022-12-27T00:09:23.615Z,3.50
2022-12-27T00:10:23.528Z,4.20
2022-12-27T00:11:23.492Z,3.90
2022-12-27T00:12:23.423Z,4.70
2022-12-27T00:13:23.405Z,3.50
2022-12-27T00:14:23.322Z,3.50
2022-12-27T00:15:23.240Z,3.40
2022-12-27T00:16:23.245Z,4.30
2022-12-27T00:17:23.100Z,4.40
2022-12-27T00:18:23.061Z,3.90
2022-12-27T00:19:22.984Z,4.50
2022-12-27T00:20:22.884Z,3.80
2022-12-27T00:21:22.847Z,3.70
2022-12-27T00:22:22.841Z,3.50
2022-12-27T00:23:22.713Z,3.70
2022-12-27T00:24:22.670Z,4.00
2022-12-27T00:25:22.627Z,3.40
2022-12-27T00:26:22.554Z,3.80
2022-12-27T00:27:22.462Z,4.10
2022-12-27T00:28:22.422Z,3.80
2022-12-27T00:29:22.361Z,3.50
2022-12-27T00:30:22.267Z,3.80
2022-12-27T00:31:22.229Z,4.00
2022-12-27T00:32:22.141Z,3.40
2022-12-27T00:33:22.105Z,3.40
2022-12-27T00:34:22.025Z,3.60
2022-12-27T00:35:21.961Z,4.00
2022-12-27T00:36:22.599Z,3.80
2022-12-27T00:37:21.813Z,4.60
2022-12-27T00:38:21.768Z,3.40
2022-12-27T00:39:21.718Z,4.40
2022-12-27T00:40:21.601Z,4.00
2022-12-27T00:41:21.638Z,3.70
2022-12-27T00:42:21.491Z,3.50
2022-12-27T00:43:21.790Z,3.90
2022-12-27T00:44:21.369Z,3.40
2022-12-27T00:45:21.322Z,3.60
2022-12-27T00:46:21.253Z,3.50
2022-12-27T00:47:21.148Z,4.20
2022-12-27T00:48:21.137Z,3.90
2022-12-27T00:49:21.066Z,3.60
2022-12-27T00:50:20.965Z,3.10
2022-12-27T00:51:20.937Z,3.60
2022-12-27T00:52:20.854Z,3.70
2022-12-27T00:53:20.858Z,3.70
2022-12-27T00:54:20.730Z,4.30
2022-12-27T00:55:20.684Z,3.40
2022-12-27T00:56:20.610Z,3.20
2022-12-27T00:57:20.573Z,3.50
2022-12-27T00:58:20.457Z,3.40
2022-12-27T00:59:20.426Z,3.80
2022-12-27T01:00:20.369Z,4.10
2022-12-27T01:02:59.237Z,3.60
2022-12-27T01:04:00.396Z,3.70
2022-12-27T01:05:00.112Z,3.60
2022-12-27T01:06:00.052Z,3.80
2022-12-27T01:06:59.975Z,3.40
2022-12-27T01:07:59.948Z,4.10
2022-12-27T01:08:59.872Z,3.80
2022-12-27T01:09:59.816Z,4.10
2022-12-27T01:10:59.701Z,3.60
2022-12-27T01:11:59.682Z,3.80
2022-12-27T01:12:59.605Z,3.50
2022-12-27T01:13:59.537Z,3.80
2022-12-27T01:14:59.523Z,3.90
2022-12-27T01:15:59.384Z,4.20
2022-12-27T01:16:59.351Z,4.10
2022-12-27T01:17:59.303Z,3.90
2022-12-27T01:20:39.220Z,3.90
2022-12-27T01:21:40.165Z,3.50
2022-12-27T01:22:40.102Z,4.00
2022-12-27T01:23:40.063Z,4.00
2022-12-27T01:24:39.960Z,3.80
2022-12-27T01:25:39.863Z,4.00
2022-12-27T01:26:39.849Z,4.10
2022-12-27T01:27:39.783Z,4.30
2022-12-27T01:28:39.687Z,4.10
2022-12-27T01:29:39.655Z,5.40
2022-12-27T01:30:39.600Z,4.80
2022-12-27T01:31:39.518Z,4.10
2022-12-27T01:32:39.483Z,4.60
2022-12-27T01:33:39.372Z,4.10
2022-12-27T01:34:39.333Z,5.50
2022-12-27T01:35:39.234Z,4.40
2022-12-27T01:36:39.162Z,4.20
2022-12-27T01:37:39.111Z,4.40
2022-12-27T01:38:39.017Z,4.10
2022-12-27T01:39:38.956Z,4.50
2022-12-27T01:40:38.919Z,4.50
2022-12-27T01:41:38.881Z,5.40
2022-12-27T01:42:38.806Z,4.70
2022-12-27T01:43:38.716Z,4.90
2022-12-27T01:44:38.680Z,4.70
2022-12-27T01:45:38.608Z,5.80
2022-12-27T01:46:38.504Z,5.00
2022-12-27T01:47:38.494Z,4.80
2022-12-27T01:48:38.671Z,4.50
2022-12-27T01:49:38.322Z,4.50
2022-12-27T01:50:38.268Z,4.60
2022-12-27T01:51:38.205Z,5.20
2022-12-27T01:52:38.151Z,5.10
2022-12-27T01:53:38.134Z,4.60
2022-12-27T01:54:38.058Z,4.90
2022-12-27T01:55:37.959Z,4.90
2022-12-27T01:56:37.847Z,4.90
2022-12-27T01:57:37.805Z,5.10
2022-12-27T01:58:37.751Z,4.50
2022-12-27T01:59:37.664Z,5.30
2022-12-27T02:00:37.608Z,4.90
2022-12-27T02:01:37.666Z,4.60
2022-12-27T02:02:37.620Z,5.90
2022-12-27T02:03:37.465Z,4.80
2022-12-27T02:04:37.331Z,5.70
2022-12-27T02:05:37.299Z,4.70
2022-12-27T02:06:37.274Z,5.20
2022-12-27T02:07:37.166Z,5.50
2022-12-27T02:08:37.121Z,4.80
2022-12-27T02:09:37.068Z,4.90
2022-12-27T02:10:36.967Z,4.60
2022-12-27T02:11:36.951Z,5.40
2022-12-27T02:12:36.855Z,5.30
2022-12-27T02:13:36.804Z,5.00
2022-12-27T02:14:36.739Z,4.90
2022-12-27T02:15:36.683Z,5.30
2022-12-27T02:16:36.611Z,4.90
2022-12-27T02:17:36.526Z,5.80
2022-12-27T02:18:36.444Z,5.10
2022-12-27T02:19:36.411Z,5.70
2022-12-27T02:20:36.358Z,6.40
2022-12-27T02:21:36.260Z,5.20
2022-12-27T02:22:36.195Z,5.50
2022-12-27T02:23:39.611Z,5.20
2022-12-27T02:24:36.100Z,5.00
2022-12-27T02:25:36.027Z,5.00
2022-12-27T02:26:35.928Z,5.40
2022-12-27T02:27:35.857Z,4.90
2022-12-27T02:28:35.836Z,5.40
2022-12-27T02:29:35.760Z,6.50
2022-12-27T02:31:44.966Z,6.60
2022-12-27T02:32:45.882Z,5.90
2022-12-27T02:33:45.882Z,5.20
2022-12-27T02:34:45.714Z,4.60
2022-12-27T02:35:45.720Z,4.80
2022-12-27T02:36:45.650Z,4.80
2022-12-27T02:37:45.576Z,5.10
2022-12-27T02:38:45.474Z,6.00
2022-12-27T02:39:45.444Z,6.10
2022-12-27T02:40:45.383Z,5.60
2022-12-27T02:41:45.313Z,5.70
2022-12-27T02:42:45.261Z,5.40
2022-12-27T02:43:45.185Z,5.80
2022-12-27T02:44:45.071Z,5.00
2022-12-27T02:45:45.167Z,5.20
2022-12-27T02:46:44.992Z,5.70
2022-12-27T02:47:44.929Z,5.00
2022-12-27T02:49:54.098Z,5.90
2022-12-27T02:50:54.992Z,5.70
2022-12-27T02:51:54.962Z,5.30
2022-12-27T02:52:54.858Z,6.40
2022-12-27T02:53:54.852Z,5.20
2022-12-27T02:54:54.764Z,5.50
2022-12-27T02:55:54.673Z,5.40
2022-12-27T02:56:54.604Z,5.40
2022-12-27T02:57:54.549Z,5.40
2022-12-27T02:58:54.525Z,5.50
2022-12-27T02:59:54.527Z,5.60
2022-12-27T03:00:54.412Z,5.10
2022-12-27T03:01:54.442Z,5.10
2022-12-27T03:02:54.329Z,4.90
2022-12-27T03:03:54.239Z,5.30
2022-12-27T03:04:54.095Z,5.60
2022-12-27T03:05:54.030Z,5.30
2022-12-27T03:07:14.939Z,5.10
2022-12-27T03:07:53.948Z,4.90
2022-12-27T03:08:53.859Z,5.50
2022-12-27T03:09:53.775Z,5.40
2022-12-27T03:10:53.730Z,5.90
2022-12-27T03:11:53.709Z,6.40
2022-12-27T03:12:53.599Z,5.40
2022-12-27T03:13:53.563Z,5.00
2022-12-27T03:14:53.451Z,5.70
2022-12-27T03:15:53.468Z,5.30
2022-12-27T03:16:53.318Z,5.60
2022-12-27T03:17:53.303Z,4.70
2022-12-27T03:18:54.106Z,5.10
2022-12-27T03:19:53.154Z,5.20
2022-12-27T03:20:53.132Z,5.60
2022-12-27T03:21:53.057Z,4.60
2022-12-27T03:22:52.934Z,6.30
2022-12-27T03:23:52.934Z,5.30
2022-12-27T03:25:13.813Z,5.70
2022-12-27T03:25:52.774Z,5.20
2022-12-27T03:26:52.688Z,5.60
2022-12-27T03:27:52.664Z,5.40
2022-12-27T03:28:52.548Z,5.10
2022-12-27T03:29:52.546Z,4.80
2022-12-27T03:30:52.486Z,5.10
2022-12-27T03:31:52.382Z,5.30
2022-12-27T03:32:52.297Z,4.70
2022-12-27T03:33:52.253Z,4.80
2022-12-27T03:34:52.201Z,5.20
2022-12-27T03:35:52.128Z,5.90
2022-12-27T03:36:52.099Z,5.10
2022-12-27T03:37:51.992Z,5.40
2022-12-27T03:38:51.912Z,5.20
2022-12-27T03:39:51.891Z,5.10
2022-12-27T03:40:51.837Z,4.50
2022-12-27T03:41:51.804Z,5.70
2022-12-27T03:43:12.679Z,5.10
2022-12-27T03:43:51.644Z,6.30
2022-12-27T03:44:51.539Z,5.20
2022-12-27T03:45:51.483Z,6.20
2022-12-27T03:46:51.449Z,4.70
2022-12-27T03:47:51.328Z,4.70
2022-12-27T03:48:51.932Z,4.80
2022-12-27T03:49:51.213Z,5.30
2022-12-27T03:50:51.160Z,5.40
2022-12-27T03:51:51.177Z,4.80
2022-12-27T03:52:51.059Z,5.50
2022-12-27T03:53:50.990Z,4.30
2022-12-27T03:54:51.198Z,5.30
2022-12-27T03:55:50.819Z,5.00
2022-12-27T03:56:50.806Z,5.10
2022-12-27T03:57:50.773Z,5.70
2022-12-27T03:58:50.645Z,5.00
2022-12-27T03:59:50.588Z,5.00
2022-12-27T04:01:11.545Z,5.50
2022-12-27T04:01:50.554Z,5.50
2022-12-27T04:02:50.569Z,5.00
2022-12-27T04:03:50.305Z,6.70
2022-12-27T04:04:50.283Z,4.80
2022-12-27T04:05:50.224Z,5.20
2022-12-27T04:06:50.123Z,5.20
2022-12-27T04:07:50.060Z,5.50
2022-12-27T04:08:50.006Z,5.40
2022-12-27T04:09:49.916Z,5.80
2022-12-27T04:10:49.900Z,5.60
2022-12-27T04:11:49.822Z,5.40
2022-12-27T04:12:49.761Z,5.30
2022-12-27T04:13:49.718Z,5.60
2022-12-27T04:14:49.614Z,5.20
2022-12-27T04:15:49.592Z,5.10
2022-12-27T04:16:49.513Z,5.20
2022-12-27T04:17:49.454Z,4.90
2022-12-27T04:19:58.594Z,4.90
2022-12-27T04:20:59.512Z,4.80
2022-12-27T04:21:59.497Z,5.90
2022-12-27T04:22:59.441Z,5.50
2022-12-27T04:23:59.352Z,5.10
2022-12-27T04:24:59.340Z,5.00
2022-12-27T04:25:59.209Z,5.20
2022-12-27T04:26:59.144Z,5.10
2022-12-27T04:27:59.145Z,5.70
2022-12-27T04:28:58.993Z,5.50
2022-12-27T04:29:58.964Z,4.70
2022-12-27T04:30:58.941Z,5.00
2022-12-27T04:31:58.799Z,5.60
2022-12-27T04:32:58.785Z,4.90
2022-12-27T04:33:58.688Z,5.10
2022-12-27T04:34:58.662Z,5.00
2022-12-27T04:36:04.304Z,4.80
2022-12-27T04:39:07.260Z,5.20
2022-12-27T04:40:08.265Z,6.00
2022-12-27T04:41:08.151Z,5.00
2022-12-27T04:42:08.036Z,5.20
2022-12-27T04:43:08.009Z,5.10
2022-12-27T04:44:07.902Z,5.30
2022-12-27T04:45:14.988Z,5.60
2022-12-27T04:46:07.810Z,4.90
2022-12-27T04:47:07.722Z,5.70
2022-12-27T04:48:07.709Z,5.10
2022-12-27T04:49:07.693Z,5.30
2022-12-27T04:50:07.559Z,5.90
2022-12-27T04:51:07.488Z,4.90
2022-12-27T04:52:07.409Z,5.40
2022-12-27T04:53:07.320Z,5.70
2022-12-27T04:54:07.323Z,4.80
2022-12-27T04:55:28.222Z,5.40
2022-12-27T04:56:07.222Z,5.00
2022-12-27T04:57:07.065Z,5.50
2022-12-27T04:58:07.028Z,5.10
2022-12-27T04:59:06.964Z,5.60
2022-12-27T05:00:06.898Z,5.30
2022-12-27T05:01:12.333Z,5.10
2022-12-27T05:02:06.799Z,5.40
2022-12-27T05:03:06.761Z,5.10
2022-12-27T05:04:06.707Z,5.00
2022-12-27T05:05:06.566Z,5.50
2022-12-27T05:06:06.507Z,5.40
2022-12-27T05:07:06.437Z,5.10
2022-12-27T05:08:06.353Z,5.20
2022-12-27T05:09:06.335Z,6.10
2022-12-27T05:10:06.248Z,5.30
2022-12-27T05:11:06.168Z,5.60
2022-12-27T05:12:06.136Z,6.30
2022-12-27T05:14:15.284Z,5.10
2022-12-27T05:15:16.183Z,5.00
2022-12-27T05:16:16.222Z,5.70
2022-12-27T05:17:16.091Z,4.60
2022-12-27T05:18:16.021Z,6.20
2022-12-27T05:19:15.946Z,5.50
2022-12-27T05:20:15.895Z,6.00
2022-12-27T05:21:15.825Z,5.10
2022-12-27T05:22:15.744Z,5.80
2022-12-27T05:23:15.679Z,6.40
2022-12-27T05:24:15.704Z,5.00
2022-12-27T05:25:15.555Z,6.10
2022-12-27T05:26:15.503Z,5.60
2022-12-27T05:27:15.437Z,5.50
2022-12-27T05:28:15.344Z,6.30
2022-12-27T05:29:15.292Z,5.40
2022-12-27T05:30:15.249Z,5.60
2022-12-27T05:31:36.200Z,5.70
2022-12-27T05:32:15.087Z,5.60
2022-12-27T05:33:15.028Z,5.60
2022-12-27T05:34:14.993Z,6.60
2022-12-27T05:35:14.919Z,5.60
2022-12-27T05:36:14.866Z,5.50
2022-12-27T05:37:14.799Z,5.90
2022-12-27T05:38:14.752Z,5.80
2022-12-27T05:39:14.666Z,5.90
2022-12-27T05:40:14.628Z,5.90
2022-12-27T05:41:14.508Z,5.40
2022-12-27T05:42:14.443Z,5.80
2022-12-27T05:43:14.413Z,5.30
2022-12-27T05:44:14.387Z,6.40
2022-12-27T05:45:14.272Z,6.00
2022-12-27T05:46:14.314Z,5.70
2022-12-27T05:47:14.190Z,6.10
2022-12-27T05:48:14.054Z,6.30
2022-12-27T05:49:14.073Z,5.20
2022-12-27T05:50:13.956Z,5.50
2022-12-27T05:51:13.886Z,5.70
2022-12-27T05:52:13.818Z,5.80
2022-12-27T05:53:13.773Z,6.00
2022-12-27T05:54:13.711Z,6.30
2022-12-27T05:55:13.681Z,5.90
2022-12-27T05:56:13.559Z,6.10
2022-12-27T05:57:13.517Z,7.30
2022-12-27T05:58:13.462Z,5.80
2022-12-27T05:59:13.356Z,5.60
2022-12-27T06:00:13.340Z,5.80
2022-12-27T06:01:34.441Z,5.80
2022-12-27T06:02:13.360Z,6.30
2022-12-27T06:03:13.260Z,7.00
2022-12-27T06:04:13.068Z,6.30
2022-12-27T06:05:12.992Z,5.70
2022-12-27T06:06:12.922Z,5.50
2022-12-27T06:07:12.863Z,5.60
2022-12-27T06:08:12.808Z,5.70
2022-12-27T06:09:12.755Z,6.00
2022-12-27T06:10:12.661Z,6.50
2022-12-27T06:11:12.555Z,6.00
2022-12-27T06:12:12.517Z,5.90
2022-12-27T06:13:12.512Z,6.20
2022-12-27T06:14:12.400Z,6.40
2022-12-27T06:15:12.328Z,6.40
2022-12-27T06:16:12.343Z,6.40
2022-12-27T06:17:12.186Z,6.20
2022-12-27T06:18:12.151Z,6.80
2022-12-27T06:19:12.080Z,5.60
2022-12-27T06:20:11.970Z,6.80
2022-12-27T06:21:11.906Z,6.60
2022-12-27T06:22:11.901Z,5.70
2022-12-27T06:23:11.848Z,7.70
2022-12-27T06:24:11.731Z,6.00
2022-12-27T06:25:14.299Z,6.10
2022-12-27T06:26:11.636Z,6.10
2022-12-27T06:27:11.544Z,6.20
2022-12-27T06:28:11.530Z,5.50
2022-12-27T06:29:11.423Z,7.00
2022-12-27T06:30:11.394Z,6.00
2022-12-27T06:31:11.402Z,6.10
2022-12-27T06:32:11.286Z,5.60
2022-12-27T06:33:11.151Z,6.10
2022-12-27T06:34:11.134Z,6.20
2022-12-27T06:35:11.058Z,6.10
2022-12-27T06:36:11.028Z,6.30
2022-12-27T06:37:10.933Z,6.00
2022-12-27T06:38:10.851Z,6.70
2022-12-27T06:39:10.721Z,6.10
2022-12-27T06:40:10.714Z,6.10
2022-12-27T06:41:10.686Z,5.60
2022-12-27T06:42:10.579Z,6.30
2022-12-27T06:43:31.504Z,5.90
2022-12-27T06:44:10.420Z,5.60
2022-12-27T06:45:10.406Z,5.70
2022-12-27T06:46:16.804Z,5.30
2022-12-27T06:47:10.281Z,6.10
2022-12-27T06:48:10.183Z,5.90
2022-12-27T06:49:10.151Z,5.00
2022-12-27T06:50:10.705Z,5.30
2022-12-27T06:51:10.024Z,5.60
2022-12-27T06:52:09.925Z,5.20
2022-12-27T06:53:09.887Z,4.80
2022-12-27T06:54:09.756Z,5.10
2022-12-27T06:55:09.793Z,5.60
2022-12-27T06:56:09.625Z,5.40
2022-12-27T06:57:09.553Z,4.90
2022-12-27T06:58:09.553Z,5.50
2022-12-27T06:59:09.436Z,5.20
2022-12-27T07:00:09.380Z,5.40
2022-12-27T07:01:30.597Z,5.40
2022-12-27T07:02:09.550Z,5.80
2022-12-27T07:03:09.207Z,5.40
2022-12-27T07:04:09.154Z,5.90
2022-12-27T07:05:09.061Z,5.80
2022-12-27T07:06:09.005Z,5.50
2022-12-27T07:07:15.603Z,5.50
2022-12-27T07:08:08.880Z,5.90
2022-12-27T07:09:08.796Z,5.40
2022-12-27T07:10:08.764Z,5.40
2022-12-27T07:11:08.749Z,4.90
2022-12-27T07:12:08.637Z,4.80
2022-12-27T07:13:08.618Z,5.70
2022-12-27T07:14:08.515Z,5.30
2022-12-27T07:15:08.423Z,5.30
2022-12-27T07:16:08.414Z,5.20
2022-12-27T07:17:08.308Z,5.60
2022-12-27T07:18:08.192Z,5.40
2022-12-27T07:19:08.236Z,6.00
2022-12-27T07:20:08.135Z,5.20
2022-12-27T07:21:08.037Z,5.30
2022-12-27T07:22:07.993Z,5.10
2022-12-27T07:23:07.903Z,4.90
2022-12-27T07:24:07.862Z,5.80
2022-12-27T07:25:07.778Z,6.10
2022-12-27T07:26:07.700Z,6.50
2022-12-27T07:27:07.639Z,5.50
2022-12-27T07:28:07.601Z,5.80
2022-12-27T07:29:07.511Z,6.30
2022-12-27T07:30:07.468Z,5.10
2022-12-27T07:31:07.397Z,5.20
2022-12-27T07:32:07.361Z,5.40
2022-12-27T07:33:07.237Z,5.60
2022-12-27T07:34:07.185Z,5.90
2022-12-27T07:35:07.153Z,5.40
2022-12-27T07:36:07.065Z,5.40
2022-12-27T07:37:07.036Z,5.20
2022-12-27T07:38:06.913Z,5.90
2022-12-27T07:39:06.845Z,5.70
2022-12-27T07:40:06.796Z,6.10
2022-12-27T07:41:06.740Z,5.00
2022-12-27T07:42:08.601Z,6.50
2022-12-27T07:43:06.597Z,5.50
2022-12-27T07:44:06.510Z,6.70
2022-12-27T07:45:06.481Z,5.90
2022-12-27T07:46:06.442Z,5.80
2022-12-27T07:47:06.321Z,6.30
2022-12-27T07:48:06.320Z,6.00
2022-12-27T07:49:06.244Z,5.50
2022-12-27T07:50:06.183Z,5.80
2022-12-27T07:51:06.099Z,5.70
2022-12-27T07:52:06.023Z,5.70
2022-12-27T07:53:05.936Z,5.60
2022-12-27T07:54:05.893Z,5.30
2022-12-27T07:55:05.890Z,6.50
2022-12-27T07:56:05.817Z,6.00
2022-12-27T07:57:05.734Z,5.60
2022-12-27T07:58:05.641Z,6.10
2022-12-27T07:59:05.579Z,6.10
2022-12-27T08:00:05.511Z,6.20
2022-12-27T08:01:05.486Z,6.00
2022-12-27T08:02:05.516Z,5.40
2022-12-27T08:03:05.312Z,5.70
2022-12-27T08:04:05.278Z,7.40
2022-12-27T08:05:05.209Z,5.20
2022-12-27T08:06:05.097Z,5.80
2022-12-27T08:07:05.080Z,4.80
2022-12-27T08:08:04.970Z,6.40
2022-12-27T08:09:04.963Z,5.10
2022-12-27T08:10:04.875Z,5.20
2022-12-27T08:11:05.851Z,5.50
2022-12-27T08:12:04.758Z,5.60
2022-12-27T08:13:04.726Z,5.10
2022-12-27T08:14:04.605Z,5.20
2022-12-27T08:15:04.572Z,5.00
2022-12-27T08:16:04.508Z,5.10
2022-12-27T08:17:04.489Z,5.50
2022-12-27T08:18:04.376Z,5.20
2022-12-27T08:19:08.388Z,4.60
2022-12-27T08:20:04.223Z,5.10
2022-12-27T08:21:04.196Z,5.50
2022-12-27T08:22:04.074Z,4.80
2022-12-27T08:23:04.009Z,6.10
2022-12-27T08:24:03.969Z,5.20
2022-12-27T08:25:03.914Z,5.70
2022-12-27T08:26:03.833Z,5.60
2022-12-27T08:27:03.780Z,5.00
2022-12-27T08:28:03.678Z,5.30
2022-12-27T08:29:03.653Z,5.10
2022-12-27T08:30:03.595Z,5.10
2022-12-27T08:31:03.552Z,4.70
2022-12-27T08:32:03.455Z,5.50
2022-12-27T08:33:03.385Z,5.20
2022-12-27T08:34:03.303Z,5.40
2022-12-27T08:35:25.251Z,5.20
2022-12-27T08:36:11.434Z,4.70
2022-12-27T08:37:03.123Z,4.30
2022-12-27T08:38:03.063Z,5.50
2022-12-27T08:39:03.001Z,5.80
2022-12-27T08:40:03.392Z,4.70
2022-12-27T08:41:02.875Z,5.00
2022-12-27T08:42:02.798Z,4.80
2022-12-27T08:43:02.763Z,4.70
2022-12-27T08:44:02.704Z,4.80
2022-12-27T08:45:02.613Z,4.30
2022-12-27T08:46:02.707Z,4.20
2022-12-27T08:47:02.487Z,5.30
2022-12-27T08:48:02.465Z,4.20
2022-12-27T08:49:02.341Z,4.60
2022-12-27T08:50:02.339Z,4.50
2022-12-27T08:51:05.972Z,3.80
2022-12-27T08:52:02.172Z,4.00
2022-12-27T08:53:02.135Z,4.60
2022-12-27T08:54:02.019Z,4.90
2022-12-27T08:55:02.007Z,4.20
2022-12-27T08:56:01.874Z,4.50
2022-12-27T08:57:01.840Z,4.60
2022-12-27T08:58:01.804Z,4.40
2022-12-27T08:59:01.740Z,4.80
2022-12-27T09:00:01.621Z,4.70
2022-12-27T09:01:01.683Z,4.50
2022-12-27T09:02:01.617Z,4.40
2022-12-27T09:03:01.538Z,4.70
2022-12-27T09:04:01.389Z,4.70
2022-12-27T09:05:01.302Z,5.20
2022-12-27T09:06:01.260Z,4.50
2022-12-27T09:07:22.224Z,4.90
2022-12-27T09:08:01.105Z,4.60
2022-12-27T09:09:01.101Z,5.40
2022-12-27T09:10:01.032Z,4.70
2022-12-27T09:11:00.993Z,4.60
2022-12-27T09:12:03.179Z,4.30
2022-12-27T09:13:00.872Z,5.40
2022-12-27T09:14:00.720Z,4.60
2022-12-27T09:15:00.698Z,3.70
2022-12-27T09:16:00.740Z,4.50
2022-12-27T09:17:00.554Z,4.00
2022-12-27T09:18:00.486Z,5.10
2022-12-27T09:19:00.711Z,4.80
2022-12-27T09:20:00.351Z,4.90
2022-12-27T09:21:00.295Z,4.70
2022-12-27T09:22:00.261Z,4.80
2022-12-27T09:23:00.192Z,4.30
2022-12-27T09:24:00.105Z,4.40
2022-12-27T09:26:40.476Z,4.30
2022-12-27T09:27:41.453Z,4.20
2022-12-27T09:28:41.394Z,4.70
2022-12-27T09:29:46.415Z,4.90
2022-12-27T09:30:41.345Z,4.70
2022-12-27T09:31:41.183Z,4.20
2022-12-27T09:32:41.124Z,4.20
2022-12-27T09:33:41.043Z,4.40
2022-12-27T09:34:41.179Z,4.30
2022-12-27T09:35:40.920Z,4.80
2022-12-27T09:36:40.854Z,4.10
2022-12-27T09:37:40.804Z,4.20
2022-12-27T09:38:40.702Z,4.30
2022-12-27T09:39:40.635Z,4.30
2022-12-27T09:40:40.592Z,4.00
2022-12-27T09:42:44.437Z,4.50
2022-12-27T09:43:06.219Z,4.70
2022-12-27T09:43:40.385Z,4.40
2022-12-27T09:44:40.384Z,4.30
2022-12-27T09:45:40.283Z,4.70
2022-12-27T09:46:40.321Z,4.60
2022-12-27T09:47:40.175Z,4.90
2022-12-27T09:48:40.129Z,4.00
2022-12-27T09:49:40.038Z,3.70
2022-12-27T09:50:39.990Z,3.80
2022-12-27T09:51:39.896Z,4.30
2022-12-27T09:52:39.897Z,3.90
2022-12-27T09:53:39.788Z,3.80
2022-12-27T09:54:39.755Z,4.30
2022-12-27T09:55:39.640Z,4.40
2022-12-27T09:57:09.680Z,3.60
2022-12-27T09:57:39.542Z,4.20
2022-12-27T09:58:39.451Z,3.50
2022-12-27T09:59:39.393Z,4.20
2022-12-27T10:01:00.334Z,3.60
2022-12-27T10:01:39.372Z,3.90
2022-12-27T10:02:39.992Z,3.90
2022-12-27T10:03:39.122Z,4.20
2022-12-27T10:05:17.823Z,3.60
2022-12-27T10:05:39.045Z,4.00
2022-12-27T10:06:38.943Z,3.50
2022-12-27T10:07:38.900Z,4.40
2022-12-27T10:08:38.842Z,4.30
2022-12-27T10:09:38.722Z,3.40
2022-12-27T10:10:38.678Z,4.20
2022-12-27T10:11:38.623Z,3.80
2022-12-27T10:12:38.608Z,4.40
2022-12-27T10:13:38.524Z,3.90
2022-12-27T10:14:38.415Z,3.80
2022-12-27T10:15:38.530Z,4.50
2022-12-27T10:16:38.280Z,3.80
2022-12-27T10:17:38.310Z,3.30
2022-12-27T10:19:47.380Z,3.20
2022-12-27T10:20:48.308Z,3.90
2022-12-27T10:21:48.190Z,3.80
2022-12-27T10:22:48.207Z,3.20
2022-12-27T10:23:48.071Z,3.50
2022-12-27T10:24:48.013Z,3.80
2022-12-27T10:25:47.961Z,4.80
2022-12-27T10:26:47.892Z,4.00
2022-12-27T10:27:47.801Z,3.70
2022-12-27T10:28:47.769Z,3.50
2022-12-27T10:29:47.705Z,3.90
2022-12-27T10:30:47.663Z,3.60
2022-12-27T10:31:47.602Z,4.40
2022-12-27T10:32:47.535Z,3.70
2022-12-27T10:33:47.484Z,4.10
2022-12-27T10:34:47.357Z,4.40
2022-12-27T10:35:47.345Z,3.80
2022-12-27T10:36:47.297Z,3.50
2022-12-27T10:37:47.202Z,4.60
2022-12-27T10:38:47.129Z,3.10
2022-12-27T10:39:47.063Z,4.30
2022-12-27T10:40:47.001Z,3.30
2022-12-27T10:41:46.938Z,4.00
2022-12-27T10:42:46.920Z,3.60
2022-12-27T10:43:46.839Z,4.70
2022-12-27T10:44:46.743Z,3.60
2022-12-27T10:45:46.710Z,3.30
2022-12-27T10:46:46.706Z,3.70
2022-12-27T10:47:46.533Z,3.80
2022-12-27T10:49:19.730Z,4.10
2022-12-27T10:49:46.447Z,3.80
2022-12-27T10:50:46.336Z,3.70
2022-12-27T10:51:46.300Z,3.40
2022-12-27T10:52:46.236Z,3.20
2022-12-27T10:53:46.178Z,3.30
2022-12-27T10:56:25.067Z,3.70
2022-12-27T10:57:25.962Z,3.50
2022-12-27T10:58:25.888Z,4.00
2022-12-27T10:59:25.851Z,3.60
2022-12-27T11:00:25.756Z,3.30
2022-12-27T11:01:25.830Z,3.60
2022-12-27T11:02:25.900Z,3.70
2022-12-27T11:03:25.553Z,3.50
2022-12-27T11:04:25.507Z,3.20
2022-12-27T11:05:25.419Z,3.00
2022-12-27T11:06:25.409Z,3.60
2022-12-27T11:07:25.359Z,3.30
2022-12-27T11:08:25.311Z,4.80
2022-12-27T11:09:25.211Z,3.40
2022-12-27T11:10:25.153Z,3.60
2022-12-27T11:11:25.061Z,3.70
2022-12-27T11:12:25.006Z,3.50
2022-12-27T11:13:24.939Z,3.80
2022-12-27T11:14:24.847Z,3.70
2022-12-27T11:15:24.796Z,3.60
2022-12-27T11:16:24.809Z,4.30
2022-12-27T11:17:24.682Z,4.60
2022-12-27T11:18:24.588Z,3.20
2022-12-27T11:19:24.551Z,3.80
2022-12-27T11:20:24.538Z,3.80
2022-12-27T11:21:27.928Z,4.20
2022-12-27T11:22:24.350Z,3.70
2022-12-27T11:23:24.326Z,3.70
2022-12-27T11:24:24.302Z,4.40
2022-12-27T11:25:24.247Z,3.90
2022-12-27T11:26:24.104Z,4.00
2022-12-27T11:27:24.035Z,3.70
2022-12-27T11:28:24.000Z,3.40
2022-12-27T11:29:23.894Z,3.30
2022-12-27T11:30:23.883Z,3.60
2022-12-27T11:31:23.887Z,3.50
2022-12-27T11:32:23.754Z,3.90
2022-12-27T11:33:25.114Z,3.50
2022-12-27T11:34:23.596Z,4.10
2022-12-27T11:35:23.538Z,4.60
2022-12-27T11:36:23.497Z,4.30
2022-12-27T11:37:23.490Z,3.90
2022-12-27T11:38:23.379Z,3.70
2022-12-27T11:39:23.255Z,4.20
2022-12-27T11:40:23.268Z,3.20
2022-12-27T11:41:27.752Z,3.90
2022-12-27T11:42:23.091Z,4.00
2022-12-27T11:43:23.054Z,3.50
2022-12-27T11:44:22.991Z,3.80
2022-12-27T11:45:22.931Z,3.40
2022-12-27T11:46:22.865Z,5.10
2022-12-27T11:47:22.863Z,3.90
2022-12-27T11:48:22.702Z,3.80
2022-12-27T11:49:22.668Z,4.40
2022-12-27T11:50:22.606Z,4.40
2022-12-27T11:51:22.526Z,3.80
2022-12-27T11:52:22.522Z,4.10
2022-12-27T11:53:22.367Z,3.90
2022-12-27T11:54:43.364Z,3.30
2022-12-27T11:55:22.317Z,3.90
2022-12-27T11:56:22.174Z,3.70
2022-12-27T11:57:22.166Z,3.60
2022-12-27T11:58:22.143Z,4.60
2022-12-27T11:59:21.990Z,3.50
2022-12-27T12:00:21.938Z,3.90
2022-12-27T12:01:21.943Z,3.80
2022-12-27T12:02:21.932Z,3.70
2022-12-27T12:03:21.819Z,4.10
2022-12-27T12:04:21.719Z,4.20
2022-12-27T12:05:21.721Z,3.30
2022-12-27T12:08:00.498Z,4.40
2022-12-27T12:09:01.425Z,3.60
2022-12-27T12:10:01.299Z,3.40
2022-12-27T12:11:01.261Z,3.50
2022-12-27T12:12:01.178Z,3.70
2022-12-27T12:13:01.137Z,4.10
2022-12-27T12:14:01.078Z,4.20
2022-12-27T12:15:01.010Z,3.70
2022-12-27T12:16:00.986Z,3.80
2022-12-27T12:17:00.922Z,4.40
2022-12-27T12:18:00.838Z,3.60
2022-12-27T12:19:00.724Z,4.20
2022-12-27T12:20:00.696Z,4.40
2022-12-27T12:21:00.607Z,4.00
2022-12-27T12:22:00.543Z,3.60
2022-12-27T12:23:00.533Z,4.10
2022-12-27T12:25:09.640Z,4.40
2022-12-27T12:26:10.568Z,3.40
2022-12-27T12:27:10.489Z,3.70
2022-12-27T12:28:38.440Z,4.30
2022-12-27T12:29:10.337Z,3.40
2022-12-27T12:30:10.313Z,4.10
2022-12-27T12:31:10.241Z,3.80
2022-12-27T12:32:10.179Z,3.60
2022-12-27T12:33:10.116Z,3.90
2022-12-27T12:34:10.048Z,3.70
2022-12-27T12:35:09.988Z,4.10
2022-12-27T12:36:09.892Z,3.60
2022-12-27T12:37:09.835Z,4.20
2022-12-27T12:38:09.767Z,3.30
2022-12-27T12:39:09.684Z,3.90
2022-12-27T12:40:09.647Z,3.90
2022-12-27T12:41:09.586Z,3.20
2022-12-27T12:42:09.601Z,3.90
2022-12-27T12:43:09.480Z,3.90
2022-12-27T12:44:09.384Z,3.70
2022-12-27T12:45:09.349Z,4.30
2022-12-27T12:46:09.338Z,3.40
2022-12-27T12:47:09.193Z,4.10
2022-12-27T12:48:09.123Z,4.30
2022-12-27T12:49:09.084Z,3.90
2022-12-27T12:50:13.325Z,3.80
2022-12-27T12:51:08.955Z,4.00
2022-12-27T12:52:08.882Z,3.80
2022-12-27T12:53:08.831Z,3.60
2022-12-27T12:54:08.828Z,4.60
2022-12-27T12:55:08.657Z,5.10
2022-12-27T12:56:08.670Z,4.20
2022-12-27T12:57:08.584Z,3.90
2022-12-27T12:58:08.468Z,3.60
2022-12-27T12:59:08.432Z,3.90
2022-12-27T13:01:50.923Z,4.00
2022-12-27T13:02:49.203Z,3.80
2022-12-27T13:03:49.009Z,3.50
2022-12-27T13:04:48.942Z,3.60
2022-12-27T13:05:48.854Z,4.40
2022-12-27T13:06:48.874Z,4.20
2022-12-27T13:07:49.651Z,3.70
2022-12-27T13:08:48.722Z,3.80
2022-12-27T13:09:48.608Z,3.90
2022-12-27T13:10:48.591Z,3.80
2022-12-27T13:11:48.483Z,4.00
2022-12-27T13:12:52.568Z,3.70
2022-12-27T13:13:48.372Z,4.20
2022-12-27T13:14:48.338Z,3.70
2022-12-27T13:15:48.215Z,3.70
2022-12-27T13:16:48.191Z,4.00
2022-12-27T13:17:48.148Z,4.00
2022-12-27T13:19:09.013Z,4.10
2022-12-27T13:19:47.995Z,3.50
2022-12-27T13:20:47.958Z,3.90
2022-12-27T13:21:47.885Z,3.40
2022-12-27T13:22:47.827Z,3.70
2022-12-27T13:23:47.734Z,4.40
2022-12-27T13:24:47.734Z,4.20
2022-12-27T13:25:47.644Z,7.70
2022-12-27T13:26:47.543Z,5.40
2022-12-27T13:27:47.456Z,3.70
2022-12-27T13:28:47.444Z,4.20
2022-12-27T13:29:47.352Z,2.80
2022-12-27T13:30:47.391Z,3.30
2022-12-27T13:31:47.231Z,4.10
2022-12-27T13:32:47.139Z,3.60
2022-12-27T13:33:47.101Z,3.70
2022-12-27T13:34:47.041Z,3.70
2022-12-27T13:35:46.977Z,3.20
2022-12-27T13:38:25.807Z,3.20
2022-12-27T13:39:26.730Z,3.00
2022-12-27T13:40:26.667Z,3.70